createdAt,value
2019-04-28T00:02:02.194Z,10.04
2019-04-28T00:04:31.921Z,9.99
2019-04-28T00:07:01.880Z,9.94
2019-04-28T00:09:31.481Z,9.77
2019-04-28T00:12:01.742Z,9.73
2019-04-28T00:14:31.800Z,9.69
2019-04-28T00:17:01.556Z,9.67
2019-04-28T00:19:31.184Z,9.73
2019-04-28T00:22:05.179Z,9.77
2019-04-28T00:24:48.480Z,9.88
2019-04-28T00:27:21.657Z,9.78
2019-04-28T00:29:51.989Z,9.72
2019-04-28T00:32:21.738Z,9.72
2019-04-28T00:34:51.543Z,9.61
2019-04-28T00:37:25.750Z,9.63
2019-04-28T00:39:55.383Z,9.66
2019-04-28T00:42:25.031Z,9.67
2019-04-28T00:44:54.698Z,9.65
2019-04-28T00:47:24.931Z,9.67
2019-04-28T00:49:54.562Z,9.71
2019-04-28T00:52:24.223Z,9.76
2019-04-28T00:54:53.852Z,9.71
2019-04-28T00:57:23.578Z,9.66
2019-04-28T00:59:57.990Z,9.63
2019-04-28T01:02:31.005Z,9.67
2019-04-28T01:05:01.635Z,9.62
2019-04-28T01:07:33.092Z,9.65
2019-04-28T01:10:02.954Z,9.71
2019-04-28T01:12:32.610Z,9.76
2019-04-28T01:15:04.796Z,9.83
2019-04-28T01:17:35.339Z,9.91
2019-04-28T01:20:14.522Z,9.85
2019-04-28T01:22:45.613Z,9.88
2019-04-28T01:25:16.694Z,9.88
2019-04-28T01:27:50.857Z,9.80
2019-04-28T01:30:40.500Z,9.80
2019-04-28T01:33:12.402Z,9.79
2019-04-28T01:35:42.036Z,9.81
2019-04-28T01:38:12.302Z,9.90
2019-04-28T01:40:43.449Z,9.99
2019-04-28T01:43:13.187Z,10.08
2019-04-28T01:45:42.848Z,10.06
2019-04-28T01:48:13.014Z,10.02
2019-04-28T01:50:42.671Z,9.99
2019-04-28T01:53:12.302Z,9.98
2019-04-28T01:55:42.361Z,10.03
2019-04-28T01:58:11.996Z,9.82
2019-04-28T02:00:41.665Z,9.83
2019-04-28T02:03:11.292Z,9.91
2019-04-28T02:05:40.960Z,9.98
2019-04-28T02:08:10.597Z,9.94
2019-04-28T02:10:40.315Z,10.05
2019-04-28T02:13:11.430Z,10.14
2019-04-28T02:15:41.110Z,10.15
2019-04-28T02:18:10.741Z,10.17
2019-04-28T02:20:42.039Z,10.19
2019-04-28T02:23:13.312Z,10.12
2019-04-28T02:25:42.977Z,10.08
2019-04-28T02:28:12.613Z,10.15
2019-04-28T02:30:49.367Z,10.16
2019-04-28T02:33:13.626Z,10.16
2019-04-28T02:35:43.317Z,10.16
2019-04-28T02:38:12.909Z,10.12
2019-04-28T02:40:42.570Z,10.23
2019-04-28T02:43:12.203Z,10.21
2019-04-28T02:45:42.206Z,10.33
2019-04-28T02:48:13.479Z,10.38
2019-04-28T02:50:44.782Z,10.39
2019-04-28T02:53:21.754Z,10.41
2019-04-28T02:55:51.586Z,10.52
2019-04-28T02:58:22.689Z,10.58
2019-04-28T03:01:06.763Z,10.71
2019-04-28T03:03:23.711Z,10.77
2019-04-28T03:05:53.542Z,10.80
2019-04-28T03:08:23.202Z,10.80
2019-04-28T03:10:53.040Z,10.80
2019-04-28T03:13:23.010Z,10.76
2019-04-28T03:15:52.654Z,10.78
2019-04-28T03:18:22.306Z,10.70
2019-04-28T03:20:52.100Z,10.75
2019-04-28T03:23:21.946Z,10.72
2019-04-28T03:26:01.361Z,10.67
2019-04-28T03:28:35.316Z,10.72
2019-04-28T03:31:59.033Z,10.68
2019-04-28T03:33:56.030Z,10.69
2019-04-28T03:36:25.823Z,10.70
2019-04-28T03:38:55.482Z,10.65
2019-04-28T03:41:25.119Z,10.65
2019-04-28T03:43:54.768Z,10.68
2019-04-28T03:46:26.035Z,10.72
2019-04-28T03:48:55.690Z,10.72
2019-04-28T03:51:25.320Z,10.71
2019-04-28T03:53:54.979Z,10.73
2019-04-28T03:56:24.613Z,10.69
2019-04-28T03:58:54.282Z,10.69
2019-04-28T04:01:23.905Z,10.69
2019-04-28T04:03:53.557Z,10.70
2019-04-28T04:06:23.181Z,10.67
2019-04-28T04:08:53.025Z,10.59
2019-04-28T04:11:31.161Z,10.57
2019-04-28T04:14:11.286Z,10.59
2019-04-28T04:16:41.593Z,10.56
2019-04-28T04:19:12.887Z,10.51
2019-04-28T04:21:42.514Z,10.47
2019-04-28T04:24:12.164Z,10.44
2019-04-28T04:26:41.784Z,10.42
2019-04-28T04:29:11.805Z,10.37
2019-04-28T04:31:41.558Z,10.32
2019-04-28T04:34:11.165Z,10.27
2019-04-28T04:36:41.735Z,10.33
2019-04-28T04:39:11.624Z,10.28
2019-04-28T04:41:43.662Z,10.26
2019-04-28T04:44:12.601Z,10.24
2019-04-28T04:46:42.259Z,10.23
2019-04-28T04:49:11.914Z,10.24
2019-04-28T04:51:43.925Z,10.24
2019-04-28T04:54:14.156Z,10.24
2019-04-28T04:56:43.812Z,10.24
2019-04-28T04:59:13.441Z,10.35
2019-04-28T05:01:56.827Z,10.38
2019-04-28T05:04:36.771Z,10.41
2019-04-28T05:07:06.496Z,10.37
2019-04-28T05:09:36.122Z,10.39
2019-04-28T05:12:05.772Z,10.37
2019-04-28T05:14:35.395Z,10.43
2019-04-28T05:17:05.116Z,10.42
2019-04-28T05:19:34.737Z,10.38
2019-04-28T05:22:04.826Z,10.43
2019-04-28T05:24:36.085Z,10.45
2019-04-28T05:27:05.740Z,10.45
2019-04-28T05:29:35.369Z,10.50
2019-04-28T05:32:05.020Z,10.58
2019-04-28T05:34:34.652Z,10.70
2019-04-28T05:37:04.364Z,10.78
2019-04-28T05:39:33.992Z,10.72
2019-04-28T05:42:03.644Z,10.77
2019-04-28T05:44:33.268Z,10.84
2019-04-28T05:47:02.926Z,10.81
2019-04-28T05:49:34.190Z,10.88
2019-04-28T05:52:11.930Z,10.97
2019-04-28T05:55:01.285Z,10.97
2019-04-28T05:57:35.497Z,11.06
2019-04-28T06:00:16.998Z,11.11
2019-04-28T06:02:56.478Z,11.10
2019-04-28T06:05:22.345Z,11.09
2019-04-28T06:08:11.644Z,11.19
2019-04-28T06:10:41.268Z,11.30
2019-04-28T06:13:10.920Z,11.27
2019-04-28T06:15:40.544Z,11.34
2019-04-28T06:18:10.520Z,11.51
2019-04-28T06:20:40.741Z,11.68
2019-04-28T06:23:10.444Z,11.82
2019-04-28T06:25:40.055Z,11.90
2019-04-28T06:28:09.772Z,12.07
2019-04-28T06:30:39.395Z,12.21
2019-04-28T06:33:09.054Z,12.36
2019-04-28T06:35:38.696Z,12.26
2019-04-28T06:38:08.413Z,12.51
2019-04-28T06:40:38.041Z,12.56
2019-04-28T06:43:07.701Z,12.71
2019-04-28T06:45:37.328Z,12.75
2019-04-28T06:48:06.981Z,12.84
2019-04-28T06:50:36.607Z,12.96
2019-04-28T06:53:06.256Z,12.90
2019-04-28T06:55:35.881Z,12.85
2019-04-28T06:58:05.550Z,12.87
2019-04-28T07:00:35.173Z,13.06
2019-04-28T07:03:04.820Z,13.15
2019-04-28T07:05:34.468Z,13.03
2019-04-28T07:08:04.129Z,13.04
2019-04-28T07:10:33.775Z,12.98
2019-04-28T07:13:03.415Z,12.97
2019-04-28T07:15:33.135Z,12.98
2019-04-28T07:18:02.772Z,12.96
2019-04-28T07:20:36.727Z,12.99
2019-04-28T07:23:06.519Z,13.08
2019-04-28T07:25:36.174Z,13.13
2019-04-28T07:28:05.801Z,13.12
2019-04-28T07:30:37.296Z,13.06
2019-04-28T07:33:06.916Z,13.05
2019-04-28T07:35:36.593Z,12.99
2019-04-28T07:38:06.188Z,12.95
2019-04-28T07:40:35.837Z,12.99
2019-04-28T07:43:05.464Z,12.87
2019-04-28T07:45:35.117Z,12.90
2019-04-28T07:48:04.744Z,12.90
2019-04-28T07:50:34.473Z,13.02
2019-04-28T07:53:14.780Z,13.13
2019-04-28T07:55:44.433Z,13.04
2019-04-28T07:58:14.049Z,12.93
2019-04-28T08:00:43.781Z,13.09
2019-04-28T08:03:13.405Z,13.15
2019-04-28T08:05:43.123Z,12.98
2019-04-28T08:08:12.764Z,12.97
2019-04-28T08:10:42.620Z,12.97
2019-04-28T08:13:12.246Z,12.93
2019-04-28T08:15:41.907Z,12.92
2019-04-28T08:18:11.628Z,12.98
2019-04-28T08:20:41.283Z,13.08
2019-04-28T08:23:10.908Z,13.10
2019-04-28T08:25:40.563Z,13.16
2019-04-28T08:28:10.240Z,13.30
2019-04-28T08:30:39.843Z,13.46
2019-04-28T08:33:27.144Z,13.63
2019-04-28T08:35:56.800Z,13.82
2019-04-28T08:38:26.433Z,13.85
2019-04-28T08:40:56.092Z,13.72
2019-04-28T08:43:26.267Z,13.66
2019-04-28T08:45:55.925Z,13.70
2019-04-28T08:48:25.569Z,13.63
2019-04-28T08:50:55.219Z,13.39
2019-04-28T08:53:24.852Z,13.24
2019-04-28T08:55:54.504Z,13.25
2019-04-28T08:58:24.132Z,13.18
2019-04-28T09:00:53.947Z,13.27
2019-04-28T09:03:23.574Z,13.30
2019-04-28T09:05:53.221Z,13.32
2019-04-28T09:08:22.856Z,13.35
2019-04-28T09:10:52.517Z,13.40
2019-04-28T09:13:22.136Z,13.40
2019-04-28T09:15:51.794Z,13.53
2019-04-28T09:18:21.443Z,13.41
2019-04-28T09:20:51.088Z,13.49
2019-04-28T09:23:20.713Z,13.55
2019-04-28T09:25:50.714Z,13.70
2019-04-28T09:28:20.338Z,13.92
2019-04-28T09:30:50.126Z,14.07
2019-04-28T09:33:19.788Z,13.87
2019-04-28T09:35:49.435Z,13.93
2019-04-28T09:38:19.342Z,14.05
2019-04-28T09:40:48.967Z,14.19
2019-04-28T09:43:26.411Z,14.19
2019-04-28T09:45:57.673Z,14.25
2019-04-28T09:48:27.328Z,14.39
2019-04-28T09:50:56.947Z,14.50
2019-04-28T09:53:26.597Z,14.62
2019-04-28T09:55:56.225Z,14.63
2019-04-28T09:58:25.881Z,14.75
2019-04-28T10:00:55.508Z,14.80
2019-04-28T10:03:25.443Z,15.00
2019-04-28T10:05:55.077Z,15.06
2019-04-28T10:08:24.733Z,15.05
2019-04-28T10:10:54.355Z,15.16
2019-04-28T10:13:24.017Z,14.88
2019-04-28T10:15:53.707Z,14.92
2019-04-28T10:18:23.360Z,14.82
2019-04-28T10:20:52.985Z,14.79
2019-04-28T10:23:22.639Z,14.92
2019-04-28T10:25:52.360Z,14.91
2019-04-28T10:28:22.011Z,15.04
2019-04-28T10:30:51.636Z,14.99
2019-04-28T10:33:21.468Z,14.91
2019-04-28T10:35:51.092Z,14.92
2019-04-28T10:38:20.741Z,14.89
2019-04-28T10:41:03.668Z,14.95
2019-04-28T10:43:33.317Z,15.09
2019-04-28T10:46:02.946Z,15.10
2019-04-28T10:48:32.593Z,15.26
2019-04-28T10:51:02.220Z,15.06
2019-04-28T10:53:31.870Z,15.29
2019-04-28T10:56:01.492Z,15.05
2019-04-28T10:58:31.146Z,15.07
2019-04-28T11:01:00.763Z,15.08
2019-04-28T11:03:30.413Z,15.07
2019-04-28T11:06:00.046Z,15.27
2019-04-28T11:08:47.978Z,15.54
2019-04-28T11:11:19.346Z,15.43
2019-04-28T11:13:49.334Z,15.44
2019-04-28T11:16:20.601Z,15.35
2019-04-28T11:18:50.667Z,15.39
2019-04-28T11:21:20.285Z,15.31
2019-04-28T11:23:49.944Z,15.21
2019-04-28T11:26:20.166Z,15.39
2019-04-28T11:28:49.826Z,15.46
2019-04-28T11:31:19.453Z,15.59
2019-04-28T11:33:56.819Z,15.46
2019-04-28T11:36:28.127Z,15.27
2019-04-28T11:38:57.768Z,15.17
2019-04-28T11:41:27.420Z,15.21
2019-04-28T11:43:57.041Z,15.14
2019-04-28T11:46:27.364Z,15.08
2019-04-28T11:48:56.984Z,15.08
2019-04-28T11:51:26.636Z,15.20
2019-04-28T11:53:56.252Z,15.34
2019-04-28T11:56:25.895Z,15.38
2019-04-28T11:58:55.519Z,15.35
2019-04-28T12:01:25.405Z,15.25
2019-04-28T12:03:56.661Z,15.23
2019-04-28T12:06:26.304Z,15.22
2019-04-28T12:08:57.581Z,15.02
2019-04-28T12:11:31.537Z,15.08
2019-04-28T12:14:08.776Z,15.09
2019-04-28T12:16:42.775Z,14.92
2019-04-28T12:19:14.117Z,14.99
2019-04-28T12:21:44.291Z,15.00
2019-04-28T12:24:13.925Z,14.89
2019-04-28T12:26:43.618Z,14.74
2019-04-28T12:29:13.241Z,14.78
2019-04-28T12:31:42.905Z,14.73
2019-04-28T12:34:12.529Z,14.69
2019-04-28T12:36:42.193Z,14.78
2019-04-28T12:39:11.823Z,14.76
2019-04-28T12:41:41.485Z,14.86
2019-04-28T12:44:11.152Z,14.83
2019-04-28T12:46:40.765Z,14.66
2019-04-28T12:49:12.033Z,14.66
2019-04-28T12:51:41.681Z,14.72
2019-04-28T12:54:12.977Z,14.78
2019-04-28T12:56:42.624Z,14.89
2019-04-28T12:59:16.349Z,14.77
2019-04-28T13:01:47.967Z,14.83
2019-04-28T13:04:27.950Z,15.00
2019-04-28T13:07:02.219Z,14.99
2019-04-28T13:09:31.945Z,14.84
2019-04-28T13:12:01.570Z,14.99
2019-04-28T13:14:31.447Z,15.15
2019-04-28T13:17:01.073Z,15.18
2019-04-28T13:19:30.875Z,15.26
2019-04-28T13:22:00.837Z,15.30
2019-04-28T13:24:30.589Z,15.30
2019-04-28T13:27:00.241Z,15.27
2019-04-28T13:29:29.907Z,15.31
2019-04-28T13:31:59.525Z,15.48
2019-04-28T13:34:30.817Z,15.49
2019-04-28T13:37:00.460Z,15.60
2019-04-28T13:39:31.841Z,15.62
2019-04-28T13:42:01.478Z,15.64
2019-04-28T13:44:48.660Z,15.58
2019-04-28T13:47:18.738Z,15.41
2019-04-28T13:49:50.735Z,15.27
2019-04-28T13:52:20.739Z,15.23
2019-04-28T13:54:52.026Z,15.20
2019-04-28T13:57:21.756Z,15.18
2019-04-28T13:59:53.037Z,15.07
2019-04-28T14:02:27.240Z,15.03
2019-04-28T14:04:58.533Z,14.98
2019-04-28T14:07:28.161Z,14.90
2019-04-28T14:09:57.818Z,14.89
2019-04-28T14:12:27.449Z,14.75
2019-04-28T14:14:57.133Z,14.68
2019-04-28T14:17:26.730Z,14.48
2019-04-28T14:19:56.414Z,14.46
2019-04-28T14:22:26.019Z,14.44
2019-04-28T14:24:55.736Z,14.37
2019-04-28T14:27:25.397Z,14.28
2019-04-28T14:29:55.043Z,14.27
2019-04-28T14:32:24.699Z,14.24
2019-04-28T14:34:55.330Z,14.19
2019-04-28T14:37:25.032Z,14.19
2019-04-28T14:39:54.674Z,14.23
2019-04-28T14:42:24.342Z,14.17
2019-04-28T14:44:53.955Z,14.12
2019-04-28T14:47:23.641Z,14.14
2019-04-28T14:49:53.223Z,14.15
2019-04-28T14:52:22.958Z,14.08
2019-04-28T14:54:52.921Z,14.08
2019-04-28T14:57:22.574Z,14.04
2019-04-28T14:59:52.215Z,14.02
2019-04-28T15:02:23.604Z,13.95
2019-04-28T15:05:00.774Z,13.83
2019-04-28T15:07:47.944Z,13.78
2019-04-28T15:10:21.986Z,13.68
2019-04-28T15:12:51.638Z,13.58
2019-04-28T15:15:21.355Z,13.54
2019-04-28T15:17:50.999Z,13.41
2019-04-28T15:20:20.625Z,13.38
2019-04-28T15:22:50.746Z,13.41
2019-04-28T15:25:20.377Z,13.42
2019-04-28T15:27:50.035Z,13.43
2019-04-28T15:30:20.124Z,13.48
2019-04-28T15:32:49.785Z,13.39
2019-04-28T15:35:20.419Z,13.37
2019-04-28T15:37:50.073Z,13.41
2019-04-28T15:40:20.121Z,13.38
2019-04-28T15:42:49.769Z,13.41
2019-04-28T15:45:19.400Z,13.31
2019-04-28T15:47:49.372Z,13.28
2019-04-28T15:50:19.070Z,13.15
2019-04-28T15:52:48.717Z,13.11
2019-04-28T15:55:23.434Z,13.00
2019-04-28T15:57:53.075Z,12.95
2019-04-28T16:00:22.773Z,12.79
2019-04-28T16:02:52.434Z,12.76
2019-04-28T16:05:22.047Z,12.69
2019-04-28T16:07:51.699Z,12.67
2019-04-28T16:10:21.514Z,12.57
2019-04-28T16:12:51.363Z,12.50
2019-04-28T16:15:20.989Z,12.41
2019-04-28T16:17:50.721Z,12.31
2019-04-28T16:20:20.410Z,12.19
2019-04-28T16:22:50.145Z,12.13
2019-04-28T16:25:19.771Z,12.10
2019-04-28T16:27:49.431Z,12.09
2019-04-28T16:30:19.180Z,12.05
2019-04-28T16:32:49.308Z,12.00
2019-04-28T16:35:19.235Z,11.96
2019-04-28T16:37:48.864Z,11.92
2019-04-28T16:40:18.521Z,11.90
2019-04-28T16:42:48.726Z,11.88
2019-04-28T16:45:18.875Z,11.87
2019-04-28T16:47:48.731Z,11.81
2019-04-28T16:50:18.454Z,11.76
2019-04-28T16:52:48.726Z,11.76
2019-04-28T16:55:28.653Z,11.68
2019-04-28T16:58:05.876Z,11.62
2019-04-28T17:00:53.354Z,11.59
2019-04-28T17:03:23.055Z,11.52
2019-04-28T17:05:52.976Z,11.44
2019-04-28T17:08:22.610Z,11.37
2019-04-28T17:10:52.266Z,11.37
2019-04-28T17:13:21.894Z,11.38
2019-04-28T17:15:51.558Z,11.39
2019-04-28T17:18:21.538Z,11.41
2019-04-28T17:20:54.268Z,11.40
2019-04-28T17:23:22.499Z,11.39
2019-04-28T17:25:52.162Z,11.39
2019-04-28T17:28:21.783Z,11.34
2019-04-28T17:30:51.433Z,11.33
2019-04-28T17:33:21.052Z,11.34
2019-04-28T17:35:50.891Z,11.31
2019-04-28T17:38:20.514Z,11.32
2019-04-28T17:40:50.384Z,11.28
2019-04-28T17:43:20.081Z,11.26
2019-04-28T17:45:50.310Z,11.23
2019-04-28T17:48:21.576Z,11.25
2019-04-28T17:50:51.221Z,11.22
2019-04-28T17:53:20.842Z,11.24
2019-04-28T17:55:50.897Z,11.18
2019-04-28T17:58:20.528Z,11.20
2019-04-28T18:00:54.752Z,11.19
2019-04-28T18:03:28.812Z,11.18
2019-04-28T18:06:18.051Z,11.16
2019-04-28T18:08:48.084Z,11.20
2019-04-28T18:11:18.065Z,11.22
2019-04-28T18:13:48.072Z,11.17
2019-04-28T18:16:19.369Z,11.19
2019-04-28T18:18:57.056Z,11.12
2019-04-28T18:21:26.713Z,11.11
2019-04-28T18:23:56.367Z,11.08
2019-04-28T18:26:25.993Z,11.02
2019-04-28T18:28:55.646Z,10.98
2019-04-28T18:31:26.912Z,10.95
2019-04-28T18:34:14.070Z,10.96
2019-04-28T18:36:45.339Z,10.94
2019-04-28T18:39:22.378Z,10.95
2019-04-28T18:41:53.641Z,10.96
2019-04-28T18:44:23.300Z,10.95
2019-04-28T18:46:52.925Z,10.95
2019-04-28T18:49:22.573Z,10.92
2019-04-28T18:51:52.197Z,10.90
2019-04-28T18:54:21.853Z,10.85
2019-04-28T18:56:51.759Z,10.86
2019-04-28T18:59:24.209Z,10.86
2019-04-28T19:02:03.317Z,10.84
2019-04-28T19:04:32.975Z,10.82
2019-04-28T19:07:05.418Z,10.82
2019-04-28T19:09:48.179Z,10.83
2019-04-28T19:12:24.853Z,10.82
2019-04-28T19:14:56.245Z,10.78
2019-04-28T19:17:33.544Z,10.78
2019-04-28T19:20:03.446Z,10.75
2019-04-28T19:22:34.730Z,10.71
2019-04-28T19:25:05.742Z,10.71
2019-04-28T19:27:35.370Z,10.71
2019-04-28T19:30:05.558Z,10.69
2019-04-28T19:32:35.182Z,10.69
2019-04-28T19:35:05.073Z,10.64
2019-04-28T19:37:34.700Z,10.61
2019-04-28T19:40:05.997Z,10.58
2019-04-28T19:42:35.616Z,10.62
2019-04-28T19:45:07.876Z,10.64
2019-04-28T19:47:38.506Z,10.62
2019-04-28T19:50:08.391Z,10.65
2019-04-28T19:52:40.998Z,10.64
2019-04-28T19:55:17.125Z,10.59
2019-04-28T19:57:51.170Z,10.58
2019-04-28T20:00:23.034Z,10.56
2019-04-28T20:02:52.820Z,10.57
2019-04-28T20:05:22.440Z,10.55
2019-04-28T20:07:52.099Z,10.56
2019-04-28T20:10:22.005Z,10.58
2019-04-28T20:12:51.658Z,10.53
2019-04-28T20:15:21.283Z,10.51
2019-04-28T20:17:51.180Z,10.52
2019-04-28T20:20:20.816Z,10.47
2019-04-28T20:22:50.574Z,10.46
2019-04-28T20:25:20.197Z,10.48
2019-04-28T20:27:49.927Z,10.47
2019-04-28T20:30:19.570Z,10.44
2019-04-28T20:32:49.254Z,10.46
2019-04-28T20:35:20.511Z,10.50
2019-04-28T20:37:54.450Z,10.47
2019-04-28T20:40:34.774Z,10.48
2019-04-28T20:43:09.120Z,10.47
2019-04-28T20:45:38.755Z,10.48
2019-04-28T20:48:08.409Z,10.45
2019-04-28T20:50:38.030Z,10.41
2019-04-28T20:53:07.683Z,10.37
2019-04-28T20:55:37.309Z,10.37
2019-04-28T20:58:07.057Z,10.38
2019-04-28T21:00:36.685Z,10.41
2019-04-28T21:03:06.336Z,10.40
2019-04-28T21:05:35.956Z,10.35
2019-04-28T21:08:05.684Z,10.39
2019-04-28T21:10:38.305Z,10.35
2019-04-28T21:13:06.743Z,10.35
2019-04-28T21:15:36.368Z,10.28
2019-04-28T21:18:06.029Z,10.28
2019-04-28T21:20:35.652Z,10.28
2019-04-28T21:23:05.301Z,10.31
2019-04-28T21:25:34.927Z,10.30
2019-04-28T21:28:04.815Z,10.34
2019-04-28T21:30:34.443Z,10.28
2019-04-28T21:33:04.094Z,10.29
2019-04-28T21:35:33.748Z,10.27
2019-04-28T21:38:03.378Z,10.28
2019-04-28T21:40:33.204Z,10.32
2019-04-28T21:43:04.461Z,10.30
2019-04-28T21:45:44.664Z,10.34
2019-04-28T21:48:15.923Z,10.30
2019-04-28T21:50:45.577Z,10.37
2019-04-28T21:53:15.200Z,10.37
2019-04-28T21:55:44.860Z,10.38
2019-04-28T21:58:14.491Z,10.39
2019-04-28T22:00:56.073Z,10.39
2019-04-28T22:03:25.805Z,10.37
2019-04-28T22:05:55.464Z,10.41
2019-04-28T22:08:25.090Z,10.35
2019-04-28T22:10:54.742Z,10.40
2019-04-28T22:13:24.362Z,10.40
2019-04-28T22:15:54.024Z,10.38
2019-04-28T22:18:24.112Z,10.36
2019-04-28T22:20:53.981Z,10.32
2019-04-28T22:23:25.240Z,10.28
2019-04-28T22:25:54.896Z,10.29
2019-04-28T22:28:24.517Z,10.26
2019-04-28T22:30:54.180Z,10.27
2019-04-28T22:33:23.803Z,10.29
2019-04-28T22:35:53.457Z,10.31
2019-04-28T22:38:23.083Z,10.30
2019-04-28T22:40:52.772Z,10.30
2019-04-28T22:43:22.588Z,10.34
2019-04-28T22:45:52.233Z,10.33
2019-04-28T22:48:23.487Z,10.36
2019-04-28T22:50:53.425Z,10.40
2019-04-28T22:53:24.690Z,10.40
2019-04-28T22:55:56.036Z,10.43
2019-04-28T22:58:41.864Z,10.46
2019-04-28T23:01:13.221Z,10.47
2019-04-28T23:03:44.689Z,10.48
2019-04-28T23:06:14.513Z,10.47
2019-04-28T23:08:44.263Z,10.50
2019-04-28T23:11:13.899Z,10.50
2019-04-28T23:13:43.552Z,10.51
2019-04-28T23:16:13.182Z,10.52
2019-04-28T23:18:42.936Z,10.54
2019-04-28T23:21:22.903Z,10.56
2019-04-28T23:23:52.629Z,10.56
2019-04-28T23:26:22.589Z,10.58
2019-04-28T23:28:52.260Z,10.58
2019-04-28T23:31:21.886Z,10.62
2019-04-28T23:33:51.800Z,10.65
2019-04-28T23:36:21.425Z,10.67
2019-04-28T23:38:51.079Z,10.66
2019-04-28T23:41:25.306Z,10.67
2019-04-28T23:43:54.956Z,10.62
2019-04-28T23:46:26.217Z,10.64
2019-04-28T23:48:55.882Z,10.64
2019-04-28T23:51:30.105Z,10.62
2019-04-28T23:54:08.735Z,10.58
2019-04-28T23:56:38.361Z,10.59
2019-04-28T23:59:08.010Z,10.60
